Time;durP1;ratioP1;P1;durP2;ratioP2;P2;SDS_P1;SDS_P2;PMS_P1;PMS_P2;Temp;Humidity;BMP_temperature;BMP_pressure;BME280_temperature;BME280_humidity;BME280_pressure;Samples;Min_cycle;Max_cycle;Signal;HPM_P1;HPM_P2
2022/06/03 00:02:10;;;;;;;;;;;23.30;93.00;;;;;;4878555;29;19939;-65
2022/06/03 00:04:57;;;;;;;;;;;23.30;93.10;;;;;;4848669;29;19936;-69
2022/06/03 00:07:28;;;;;;;;;;;23.30;93.10;;;;;;4846402;29;20343;-64
2022/06/03 00:10:14;;;;;;;;;;;23.30;93.10;;;;;;4864133;29;20320;-64
2022/06/03 00:12:50;;;;;;;;;;;23.30;93.10;;;;;;4871893;29;19932;-63
2022/06/03 00:15:36;;;;;;;;;;;23.30;93.10;;;;;;4872778;29;20399;-67
2022/06/03 00:18:17;;;;;;;;;;;23.30;93.20;;;;;;4864771;29;20037;-68
2022/06/03 00:20:56;;;;;;;;;;;23.30;93.20;;;;;;4870557;29;19935;-65
2022/06/03 00:23:49;;;;;;;;;;;23.30;93.10;;;;;;4870801;29;19935;-66
2022/06/03 00:26:23;;;;;;;;;;;23.30;93.20;;;;;;4879318;29;19932;-63
2022/06/03 00:28:58;;;;;;;;;;;23.30;93.10;;;;;;4857967;29;19931;-66
2022/06/03 00:31:44;;;;;;;;;;;23.20;93.20;;;;;;4880979;29;19943;-64
2022/06/03 00:34:18;;;;;;;;;;;23.30;93.20;;;;;;4863923;29;19939;-64
2022/06/03 00:36:51;;;;;;;;;;;23.30;93.20;;;;;;4858138;29;19932;-63
2022/06/03 00:39:39;;;;;;;;;;;23.20;93.20;;;;;;4871357;29;20628;-66
2022/06/03 00:42:25;;;;;;;;;;;23.20;93.20;;;;;;4846700;29;20013;-64
2022/06/03 00:45:01;;;;;;;;;;;23.20;93.20;;;;;;4871534;29;19932;-63
2022/06/03 00:47:37;;;;;;;;;;;23.20;93.30;;;;;;4871705;29;19938;-59
2022/06/03 00:50:07;;;;;;;;;;;23.20;93.20;;;;;;4860907;29;19931;-63
2022/06/03 00:52:44;;;;;;;;;;;23.20;93.30;;;;;;4871480;29;19932;-66
2022/06/03 00:55:30;;;;;;;;;;;23.20;93.30;;;;;;4860074;29;20265;-67
2022/06/03 00:58:05;;;;;;;;;;;23.20;93.30;;;;;;4878225;29;20293;-68
2022/06/03 01:00:36;;;;;;;;;;;23.20;93.30;;;;;;4855891;29;19928;-62
2022/06/03 01:03:19;;;;;;;;;;;23.20;93.30;;;;;;4864743;29;19928;-62
2022/06/03 01:06:05;;;;;;;;;;;23.20;93.30;;;;;;4868957;29;19932;-63
2022/06/03 01:08:43;;;;;;;;;;;23.20;93.30;;;;;;4877234;29;19928;-65
2022/06/03 01:11:14;;;;;;;;;;;23.20;93.30;;;;;;4876165;29;19936;-66
2022/06/03 01:13:49;;;;;;;;;;;23.20;93.40;;;;;;4872866;29;20337;-63
2022/06/03 01:16:29;;;;;;;;;;;23.20;93.40;;;;;;4873352;29;19938;-63
2022/06/03 01:19:16;;;;;;;;;;;23.20;93.50;;;;;;4876678;29;19928;-67
2022/06/03 01:22:00;;;;;;;;;;;23.20;93.50;;;;;;4854305;29;19932;-65
2022/06/03 01:24:30;;;;;;;;;;;23.20;93.50;;;;;;4869625;29;19943;-67
2022/06/03 01:27:07;;;;;;;;;;;23.20;93.50;;;;;;4871064;29;20011;-65
2022/06/03 01:29:40;;;;;;;;;;;23.20;93.50;;;;;;4869483;29;19932;-64
2022/06/03 01:32:32;;;;;;;;;;;23.10;93.60;;;;;;4857642;29;19940;-63
2022/06/03 01:35:06;;;;;;;;;;;23.20;93.50;;;;;;4878629;29;20381;-67
2022/06/03 01:37:46;;;;;;;;;;;23.20;93.60;;;;;;4872811;29;20027;-63
2022/06/03 01:40:20;;;;;;;;;;;23.20;93.60;;;;;;4858417;29;19936;-61
2022/06/03 01:43:06;;;;;;;;;;;23.10;93.60;;;;;;4872307;29;19942;-63
2022/06/03 01:45:51;;;;;;;;;;;23.10;93.60;;;;;;4878538;29;19931;-62
2022/06/03 01:48:37;;;;;;;;;;;23.10;93.60;;;;;;4856507;29;20693;-61
2022/06/03 01:51:23;;;;;;;;;;;23.10;93.70;;;;;;4870081;29;19939;-66
2022/06/03 01:54:03;;;;;;;;;;;23.10;93.70;;;;;;4868205;29;19932;-67
2022/06/03 01:56:48;;;;;;;;;;;23.10;93.70;;;;;;4874232;29;19932;-63
2022/06/03 01:59:35;;;;;;;;;;;23.10;93.70;;;;;;4852087;29;19938;-63
2022/06/03 02:02:15;;;;;;;;;;;23.10;93.70;;;;;;4866560;29;19957;-64
2022/06/03 02:04:54;;;;;;;;;;;23.10;93.70;;;;;;4861973;29;19931;-63
2022/06/03 02:07:37;;;;;;;;;;;23.10;93.70;;;;;;4871347;29;19932;-65
2022/06/03 02:10:23;;;;;;;;;;;23.10;93.80;;;;;;4843111;29;19939;-64
2022/06/03 02:12:50;;;;;;;;;;;23.10;93.80;;;;;;4868559;29;19938;-68
2022/06/03 02:15:36;;;;;;;;;;;23.10;93.80;;;;;;4862592;29;19936;-64
2022/06/03 02:18:22;;;;;;;;;;;23.10;93.80;;;;;;4855621;29;19935;-63
2022/06/03 02:20:52;;;;;;;;;;;23.10;93.90;;;;;;4877710;29;19935;-65
2022/06/03 02:23:42;;;;;;;;;;;23.10;93.80;;;;;;4872146;29;20506;-61
2022/06/03 02:26:09;;;;;;;;;;;23.10;93.80;;;;;;4840583;29;19932;-64
2022/06/03 02:28:47;;;;;;;;;;;23.10;93.90;;;;;;4870499;29;19929;-64
2022/06/03 02:31:15;;;;;;;;;;;23.10;93.80;;;;;;4873832;29;19932;-64
2022/06/03 02:34:00;;;;;;;;;;;23.10;93.80;;;;;;4866997;29;19928;-64
2022/06/03 02:36:37;;;;;;;;;;;23.10;94.00;;;;;;4863387;29;19931;-61
2022/06/03 02:39:10;;;;;;;;;;;23.10;94.20;;;;;;4857396;29;19932;-64
2022/06/03 02:42:10;;;;;;;;;;;23.00;94.30;;;;;;4874871;29;19932;-66
2022/06/03 02:44:37;;;;;;;;;;;23.00;94.30;;;;;;4818180;29;19932;-65
2022/06/03 02:47:23;;;;;;;;;;;23.10;94.30;;;;;;4864670;29;19932;-61
2022/06/03 02:50:09;;;;;;;;;;;23.10;94.30;;;;;;4862101;29;19943;-67
2022/06/03 02:53:00;;;;;;;;;;;23.00;94.10;;;;;;4872248;29;19934;-65
2022/06/03 02:55:48;;;;;;;;;;;23.00;94.20;;;;;;4874428;29;19927;-64
2022/06/03 02:58:21;;;;;;;;;;;23.00;94.20;;;;;;4857292;29;19932;-64
2022/06/03 03:00:48;;;;;;;;;;;23.00;91.70;;;;;;4869367;29;19939;-61
2022/06/03 03:03:18;;;;;;;;;;;22.90;90.70;;;;;;4872034;29;19943;-63
2022/06/03 03:05:53;;;;;;;;;;;22.80;89.60;;;;;;4872970;29;19952;-65
2022/06/03 03:08:39;;;;;;;;;;;22.80;88.50;;;;;;4872773;29;19942;-65
2022/06/03 03:11:28;;;;;;;;;;;22.70;86.30;;;;;;4873414;29;19928;-63
2022/06/03 03:14:15;;;;;;;;;;;22.70;87.70;;;;;;4856751;29;19932;-63
2022/06/03 03:16:59;;;;;;;;;;;22.70;88.00;;;;;;4876830;29;19927;-62
2022/06/03 03:19:26;;;;;;;;;;;22.70;88.20;;;;;;4877435;29;20412;-64
2022/06/03 03:22:14;;;;;;;;;;;22.80;88.00;;;;;;4875096;29;19942;-63
2022/06/03 03:24:44;;;;;;;;;;;22.80;88.40;;;;;;4876843;29;19954;-65
2022/06/03 03:27:11;;;;;;;;;;;22.80;87.90;;;;;;4878352;29;20369;-64
2022/06/03 03:29:53;;;;;;;;;;;22.80;88.00;;;;;;4872637;29;20424;-64
2022/06/03 03:32:39;;;;;;;;;;;22.80;88.10;;;;;;4876605;29;19936;-64
2022/06/03 03:35:09;;;;;;;;;;;22.80;88.30;;;;;;4873563;29;19934;-64
2022/06/03 03:37:45;;;;;;;;;;;22.80;88.50;;;;;;4875416;29;19928;-65
2022/06/03 03:40:15;;;;;;;;;;;22.80;88.70;;;;;;4864841;29;19935;-64
2022/06/03 03:43:01;;;;;;;;;;;22.80;88.90;;;;;;4852968;29;19928;-63
2022/06/03 03:45:43;;;;;;;;;;;22.80;89.00;;;;;;4874630;29;19932;-63
2022/06/03 03:48:22;;;;;;;;;;;22.80;89.30;;;;;;4870152;29;19936;-65
2022/06/03 03:51:03;;;;;;;;;;;22.80;89.50;;;;;;4880187;29;19958;-62
2022/06/03 03:53:36;;;;;;;;;;;22.80;89.70;;;;;;4877752;29;19932;-64
2022/06/03 03:56:34;;;;;;;;;;;22.80;89.80;;;;;;4874856;29;19928;-62
2022/06/03 03:59:07;;;;;;;;;;;22.80;90.00;;;;;;4880405;29;19935;-63
2022/06/03 04:02:13;;;;;;;;;;;22.80;90.00;;;;;;4880641;29;19954;-62
2022/06/03 04:04:58;;;;;;;;;;;22.80;90.10;;;;;;4856297;29;19931;-64
2022/06/03 04:07:41;;;;;;;;;;;22.70;90.10;;;;;;4849939;29;20431;-65
2022/06/03 04:10:26;;;;;;;;;;;22.80;90.20;;;;;;4885811;29;19942;-65
2022/06/03 04:13:06;;;;;;;;;;;22.70;90.30;;;;;;4884064;29;19932;-64
2022/06/03 04:15:45;;;;;;;;;;;22.70;90.30;;;;;;4889255;29;19927;-69
2022/06/03 04:18:18;;;;;;;;;;;22.80;90.50;;;;;;4895059;29;19928;-68
2022/06/03 04:20:51;;;;;;;;;;;22.80;90.60;;;;;;4892076;29;19931;-67
2022/06/03 04:23:27;;;;;;;;;;;22.80;90.60;;;;;;4872904;29;20401;-68
2022/06/03 04:26:13;;;;;;;;;;;22.80;90.70;;;;;;4875558;29;19931;-65
2022/06/03 04:28:56;;;;;;;;;;;22.90;90.70;;;;;;4877368;29;19939;-65
2022/06/03 04:31:42;;;;;;;;;;;22.90;90.80;;;;;;4882520;29;19928;-64
2022/06/03 04:34:09;;;;;;;;;;;22.90;90.90;;;;;;4878609;29;19928;-62
2022/06/03 04:36:37;;;;;;;;;;;22.90;90.90;;;;;;4863697;29;19932;-64
2022/06/03 04:39:10;;;;;;;;;;;22.90;91.00;;;;;;4883170;29;19928;-64
2022/06/03 04:41:56;;;;;;;;;;;22.90;91.10;;;;;;4865183;29;19927;-63
2022/06/03 04:44:32;;;;;;;;;;;22.90;91.10;;;;;;4871091;29;19928;-67
2022/06/03 04:46:59;;;;;;;;;;;22.90;91.20;;;;;;4864024;29;19932;-64
2022/06/03 04:49:26;;;;;;;;;;;22.90;91.20;;;;;;4890421;29;19932;-64
2022/06/03 04:52:12;;;;;;;;;;;22.90;91.20;;;;;;4867430;29;20392;-64
2022/06/03 04:54:45;;;;;;;;;;;23.00;91.30;;;;;;4878150;29;19936;-64
2022/06/03 04:57:18;;;;;;;;;;;23.00;91.40;;;;;;4879218;29;19938;-65
2022/06/03 04:59:54;;;;;;;;;;;23.00;91.40;;;;;;4877986;29;20015;-65
2022/06/03 05:02:41;;;;;;;;;;;23.00;91.40;;;;;;4881035;29;19931;-62
2022/06/03 05:05:17;;;;;;;;;;;23.00;91.50;;;;;;4885940;29;20015;-65
2022/06/03 05:08:00;;;;;;;;;;;23.00;91.50;;;;;;4869850;29;19943;-64
2022/06/03 05:10:46;;;;;;;;;;;23.00;91.60;;;;;;4878551;29;20308;-63
2022/06/03 05:13:13;;;;;;;;;;;23.00;91.60;;;;;;4876827;29;19935;-66
2022/06/03 05:15:49;;;;;;;;;;;23.00;91.70;;;;;;4875860;29;19956;-65
2022/06/03 05:18:19;;;;;;;;;;;23.00;91.70;;;;;;4873128;29;19943;-64
2022/06/03 05:20:59;;;;;;;;;;;23.00;91.80;;;;;;4856233;29;19936;-63
2022/06/03 05:23:29;;;;;;;;;;;23.00;91.80;;;;;;4871004;29;19932;-64
2022/06/03 05:25:59;;;;;;;;;;;23.00;91.80;;;;;;4875190;29;19932;-64
2022/06/03 05:28:41;;;;;;;;;;;23.00;91.80;;;;;;4876183;29;19931;-66
2022/06/03 05:31:43;;;;;;;;;;;23.00;91.90;;;;;;4857332;29;19928;-63
2022/06/03 05:34:20;;;;;;;;;;;23.00;91.90;;;;;;4877055;29;19932;-64
2022/06/03 05:36:58;;;;;;;;;;;23.00;91.90;;;;;;4876001;29;19927;-67
2022/06/03 05:39:32;;;;;;;;;;;23.00;91.90;;;;;;4874692;29;19932;-59
2022/06/03 05:44:48;;;;;;;;;;;22.90;87.90;;;;;;4883126;29;19932;-61
2022/06/03 05:47:23;;;;;;;;;;;22.50;83.70;;;;;;4885544;29;19939;-62
2022/06/03 05:50:01;;;;;;;;;;;22.40;85.20;;;;;;4884049;29;19932;-64
2022/06/03 05:52:31;;;;;;;;;;;22.50;86.60;;;;;;4874358;29;19936;-68
2022/06/03 05:55:07;;;;;;;;;;;22.60;86.80;;;;;;4858908;29;20335;-64
2022/06/03 05:57:53;;;;;;;;;;;22.70;87.80;;;;;;4875217;29;19936;-65
2022/06/03 06:00:38;;;;;;;;;;;22.80;88.30;;;;;;4874930;29;19932;-65
2022/06/03 06:03:11;;;;;;;;;;;22.90;88.50;;;;;;4876052;29;19938;-64
2022/06/03 06:05:51;;;;;;;;;;;22.90;89.60;;;;;;4857011;29;19928;-65
2022/06/03 06:08:23;;;;;;;;;;;23.00;90.00;;;;;;4858938;29;19939;-65
2022/06/03 06:11:03;;;;;;;;;;;23.00;90.00;;;;;;4865312;29;19939;-68
2022/06/03 06:13:30;;;;;;;;;;;23.10;90.20;;;;;;4872818;29;20394;-66
2022/06/03 06:16:03;;;;;;;;;;;23.00;90.30;;;;;;4872706;29;19939;-62
2022/06/03 06:18:41;;;;;;;;;;;23.00;90.50;;;;;;4866038;29;20397;-62
2022/06/03 06:21:08;;;;;;;;;;;23.10;90.70;;;;;;4873787;29;19927;-64
2022/06/03 06:23:45;;;;;;;;;;;23.10;90.80;;;;;;4873387;29;19939;-63
2022/06/03 06:26:31;;;;;;;;;;;23.10;90.80;;;;;;4861720;29;19932;-61
2022/06/03 06:29:17;;;;;;;;;;;23.00;90.90;;;;;;4875243;29;19938;-63
2022/06/03 06:32:04;;;;;;;;;;;23.00;91.10;;;;;;4862643;29;19935;-61
2022/06/03 06:34:51;;;;;;;;;;;23.00;91.40;;;;;;4872307;29;19950;-64
2022/06/03 06:37:24;;;;;;;;;;;23.00;91.50;;;;;;4872920;29;19938;-65
2022/06/03 06:39:59;;;;;;;;;;;23.10;91.70;;;;;;4873139;29;20309;-65
2022/06/03 06:42:32;;;;;;;;;;;23.10;91.70;;;;;;4872264;29;20391;-69
2022/06/03 06:45:02;;;;;;;;;;;23.10;91.80;;;;;;4872936;29;20419;-63
2022/06/03 06:47:49;;;;;;;;;;;23.10;91.90;;;;;;4866777;29;20384;-63
2022/06/03 06:50:17;;;;;;;;;;;23.10;91.80;;;;;;4873756;29;19932;-66
2022/06/03 06:52:52;;;;;;;;;;;23.10;92.10;;;;;;4873114;29;19932;-66
2022/06/03 06:55:25;;;;;;;;;;;23.10;92.10;;;;;;4872825;29;19938;-65
2022/06/03 06:57:55;;;;;;;;;;;23.00;92.20;;;;;;4874450;29;20398;-62
2022/06/03 07:00:24;;;;;;;;;;;23.10;92.20;;;;;;4873175;29;19935;-64
2022/06/03 07:02:56;;;;;;;;;;;23.10;92.30;;;;;;4857736;29;20438;-64
2022/06/03 07:05:33;;;;;;;;;;;23.10;92.40;;;;;;4860392;29;19943;-66
2022/06/03 07:08:06;;;;;;;;;;;23.10;92.40;;;;;;4877229;29;19939;-66
2022/06/03 07:10:36;;;;;;;;;;;23.10;92.50;;;;;;4871746;29;19931;-65
2022/06/03 07:13:09;;;;;;;;;;;23.20;92.70;;;;;;4868961;29;19943;-62
2022/06/03 07:15:45;;;;;;;;;;;23.20;92.70;;;;;;4861365;29;19943;-64
2022/06/03 07:21:41;;;;;;;;;;;23.20;92.80;;;;;;4815284;29;19944;-62
2022/06/03 07:24:20;;;;;;;;;;;23.20;92.90;;;;;;4839885;29;20003;-63
2022/06/03 07:26:49;;;;;;;;;;;23.20;92.80;;;;;;4866327;29;19928;-64
2022/06/03 07:29:20;;;;;;;;;;;23.20;93.00;;;;;;4856084;29;19927;-65
2022/06/03 07:31:50;;;;;;;;;;;23.30;93.10;;;;;;4886164;29;20296;-65
2022/06/03 07:34:34;;;;;;;;;;;23.30;93.20;;;;;;4875076;29;19932;-63
2022/06/03 07:37:20;;;;;;;;;;;23.40;93.30;;;;;;4869154;29;20458;-66
2022/06/03 07:39:54;;;;;;;;;;;23.40;93.30;;;;;;4852229;29;19943;-65
2022/06/03 07:42:31;;;;;;;;;;;23.40;93.50;;;;;;4856391;29;19928;-64
2022/06/03 07:45:17;;;;;;;;;;;23.40;93.50;;;;;;4875275;29;19976;-63
2022/06/03 07:47:45;;;;;;;;;;;23.40;93.70;;;;;;4875528;29;19936;-63
2022/06/03 07:50:15;;;;;;;;;;;23.40;93.80;;;;;;4859243;29;19935;-67
2022/06/03 07:52:46;;;;;;;;;;;23.40;93.70;;;;;;4872721;29;19935;-66
2022/06/03 07:55:16;;;;;;;;;;;23.40;93.60;;;;;;4869440;29;19936;-66
2022/06/03 07:57:49;;;;;;;;;;;23.40;93.60;;;;;;4871426;29;19936;-63
2022/06/03 08:00:18;;;;;;;;;;;23.40;93.50;;;;;;4869792;29;20333;-67
2022/06/03 08:02:46;;;;;;;;;;;23.40;93.50;;;;;;4875764;29;20391;-65
2022/06/03 08:05:16;;;;;;;;;;;23.40;93.50;;;;;;4874541;29;19936;-67
2022/06/03 08:11:00;;;;;;;;;;;23.40;93.50;;;;;;4876503;29;19927;-65
2022/06/03 08:13:43;;;;;;;;;;;23.40;93.60;;;;;;4875367;29;20315;-65
2022/06/03 08:16:13;;;;;;;;;;;23.40;93.60;;;;;;4874899;29;20412;-63
2022/06/03 08:18:42;;;;;;;;;;;23.40;93.70;;;;;;4875911;29;19932;-67
2022/06/03 08:21:12;;;;;;;;;;;23.40;93.70;;;;;;4876245;29;19939;-67
2022/06/03 08:23:39;;;;;;;;;;;23.40;93.80;;;;;;4877375;29;19939;-66
2022/06/03 08:26:14;;;;;;;;;;;23.40;93.70;;;;;;4878148;29;19935;-67
2022/06/03 08:28:48;;;;;;;;;;;23.50;93.70;;;;;;4872475;29;19949;-67
2022/06/03 08:31:18;;;;;;;;;;;23.40;93.80;;;;;;4879376;29;19932;-65
2022/06/03 08:33:50;;;;;;;;;;;23.50;93.80;;;;;;4879019;29;19939;-65
2022/06/03 08:36:25;;;;;;;;;;;23.40;94.00;;;;;;4884879;29;19928;-67
2022/06/03 08:38:57;;;;;;;;;;;23.50;93.90;;;;;;4867445;29;19952;-65
2022/06/03 08:41:27;;;;;;;;;;;23.50;93.80;;;;;;4867332;29;20281;-65
2022/06/03 08:44:03;;;;;;;;;;;23.50;93.90;;;;;;4881495;29;19931;-65
2022/06/03 08:46:55;;;;;;;;;;;23.50;93.90;;;;;;4878206;29;19943;-63
2022/06/03 08:49:26;;;;;;;;;;;23.50;93.90;;;;;;4877719;29;20010;-66
2022/06/03 08:52:00;;;;;;;;;;;23.50;94.00;;;;;;4884279;29;20017;-65
2022/06/03 08:54:38;;;;;;;;;;;23.50;93.90;;;;;;4869278;29;19936;-67
2022/06/03 08:57:12;;;;;;;;;;;23.50;94.00;;;;;;4876815;29;19932;-62
2022/06/03 08:59:49;;;;;;;;;;;23.60;94.10;;;;;;4865303;29;20467;-58
2022/06/03 09:02:22;;;;;;;;;;;23.50;93.90;;;;;;4881601;29;19939;-63
2022/06/03 09:04:58;;;;;;;;;;;23.60;94.00;;;;;;4873651;29;19932;-63
2022/06/03 09:07:45;;;;;;;;;;;23.60;94.00;;;;;;4878204;29;19942;-59
2022/06/03 09:10:27;;;;;;;;;;;23.60;94.10;;;;;;4880711;29;20586;-59
2022/06/03 09:12:54;;;;;;;;;;;23.60;94.20;;;;;;4875819;29;19939;-61
2022/06/03 09:15:23;;;;;;;;;;;23.60;94.30;;;;;;4879665;29;19932;-62
2022/06/03 09:17:58;;;;;;;;;;;23.50;94.30;;;;;;4860165;29;19932;-64
2022/06/03 09:20:28;;;;;;;;;;;23.50;94.30;;;;;;4877960;29;19931;-62
2022/06/03 09:23:02;;;;;;;;;;;23.50;94.40;;;;;;4875261;29;20072;-62
2022/06/03 09:25:31;;;;;;;;;;;23.50;94.50;;;;;;4884600;29;19935;-63
2022/06/03 09:28:00;;;;;;;;;;;23.60;95.00;;;;;;4879171;29;19932;-67
2022/06/03 09:30:38;;;;;;;;;;;23.60;96.00;;;;;;4863754;29;19940;-61
2022/06/03 09:33:08;;;;;;;;;;;23.60;96.70;;;;;;4875510;29;20303;-61
2022/06/03 09:35:38;;;;;;;;;;;23.60;97.00;;;;;;4875538;29;19942;-60
2022/06/03 09:38:05;;;;;;;;;;;23.60;97.90;;;;;;4876770;29;19955;-63
2022/06/03 09:40:39;;;;;;;;;;;23.60;98.50;;;;;;4881707;29;19939;-64
2022/06/03 09:43:22;;;;;;;;;;;23.60;99.50;;;;;;4862474;29;19931;-63
2022/06/03 09:45:54;;;;;;;;;;;23.60;99.40;;;;;;4873730;29;19936;-60
2022/06/03 09:48:26;;;;;;;;;;;23.60;99.50;;;;;;4879715;29;19932;-65
2022/06/03 09:50:56;;;;;;;;;;;23.70;99.70;;;;;;4876607;29;19931;-62
2022/06/03 09:53:26;;;;;;;;;;;23.60;99.90;;;;;;4880619;29;19943;-65
2022/06/03 09:55:55;;;;;;;;;;;23.60;99.90;;;;;;4884934;29;20351;-62
2022/06/03 09:58:27;;;;;;;;;;;23.70;99.90;;;;;;4863998;29;19931;-63
2022/06/03 10:00:55;;;;;;;;;;;23.70;99.90;;;;;;4877456;29;19962;-66
2022/06/03 10:03:24;;;;;;;;;;;23.70;99.90;;;;;;4878693;29;19932;-64
2022/06/03 10:05:54;;;;;;;;;;;23.70;99.90;;;;;;4879528;29;19932;-64
2022/06/03 10:08:24;;;;;;;;;;;23.70;99.90;;;;;;4874066;29;19929;-66
2022/06/03 10:13:39;;;;;;;;;;;23.80;99.90;;;;;;4875047;29;19931;-62
2022/06/03 10:16:07;;;;;;;;;;;23.70;99.90;;;;;;4863482;29;20360;-63
2022/06/03 10:18:46;;;;;;;;;;;23.80;99.90;;;;;;4876431;29;19932;-65
2022/06/03 10:21:14;;;;;;;;;;;23.80;99.90;;;;;;4870253;29;19966;-64
2022/06/03 10:23:41;;;;;;;;;;;23.80;99.90;;;;;;4881470;29;20293;-65
2022/06/03 10:26:39;;;;;;;;;;;23.70;99.90;;;;;;4860567;29;20218;-66
2022/06/03 10:29:10;;;;;;;;;;;23.70;99.90;;;;;;4869056;29;20288;-67
2022/06/03 10:31:52;;;;;;;;;;;23.70;99.90;;;;;;4878398;29;19943;-63
2022/06/03 10:34:32;;;;;;;;;;;23.70;99.90;;;;;;4874756;29;19936;-68
2022/06/03 10:36:59;;;;;;;;;;;23.70;99.90;;;;;;4860655;29;19939;-70
2022/06/03 10:39:28;;;;;;;;;;;23.70;99.90;;;;;;4877990;29;19927;-67
2022/06/03 10:41:58;;;;;;;;;;;23.70;99.90;;;;;;4878988;29;20296;-65
2022/06/03 10:44:25;;;;;;;;;;;23.70;99.90;;;;;;4878634;29;19958;-64
2022/06/03 10:47:04;;;;;;;;;;;23.60;99.90;;;;;;4879416;29;19932;-64
2022/06/03 10:49:35;;;;;;;;;;;23.70;99.90;;;;;;4857784;29;19932;-66
2022/06/03 11:03:23;;;;;;;;;;;23.70;99.90;;;;;;4870475;29;19936;-63
2022/06/03 11:05:51;;;;;;;;;;;23.70;99.90;;;;;;4872628;29;19932;-60
2022/06/03 11:08:19;;;;;;;;;;;23.70;99.90;;;;;;4872858;29;20375;-58
2022/06/03 11:10:50;;;;;;;;;;;23.70;99.90;;;;;;4872575;29;19932;-63
2022/06/03 11:13:26;;;;;;;;;;;23.70;99.90;;;;;;4875753;29;20412;-60
2022/06/03 11:15:53;;;;;;;;;;;23.60;99.90;;;;;;4873176;29;20310;-60
2022/06/03 11:18:24;;;;;;;;;;;23.60;99.90;;;;;;4877865;29;19932;-64
2022/06/03 11:20:52;;;;;;;;;;;23.60;99.90;;;;;;4879049;29;20347;-59
2022/06/03 11:23:20;;;;;;;;;;;23.60;99.90;;;;;;4873720;29;19932;-64
2022/06/03 11:25:49;;;;;;;;;;;23.60;99.90;;;;;;4862824;29;19927;-61
2022/06/03 11:28:20;;;;;;;;;;;23.60;99.90;;;;;;4864029;29;19928;-58
2022/06/03 11:31:03;;;;;;;;;;;23.60;99.90;;;;;;4866887;29;19939;-64
2022/06/03 11:33:41;;;;;;;;;;;23.60;99.90;;;;;;4865052;29;19943;-58
2022/06/03 11:36:14;;;;;;;;;;;23.60;99.90;;;;;;4855355;29;19928;-58
2022/06/03 11:38:49;;;;;;;;;;;23.60;99.90;;;;;;4843520;29;20019;-61
2022/06/03 11:41:27;;;;;;;;;;;23.60;99.90;;;;;;4870388;29;20353;-58
2022/06/03 11:43:57;;;;;;;;;;;23.60;99.90;;;;;;4873154;29;19943;-60
2022/06/03 11:46:52;;;;;;;;;;;23.50;99.80;;;;;;4882687;29;20396;-62
2022/06/03 11:49:21;;;;;;;;;;;23.50;99.70;;;;;;4866920;29;20314;-69
2022/06/03 11:51:48;;;;;;;;;;;23.50;99.50;;;;;;4874225;29;19927;-63
2022/06/03 11:54:16;;;;;;;;;;;23.50;99.40;;;;;;4868706;29;19932;-60
2022/06/03 11:56:45;;;;;;;;;;;23.50;99.30;;;;;;4844964;29;20731;-61
2022/06/03 11:59:23;;;;;;;;;;;23.50;99.20;;;;;;4847833;29;19944;-62
2022/06/03 12:01:50;;;;;;;;;;;23.50;99.10;;;;;;4873482;29;19943;-60
2022/06/03 12:04:25;;;;;;;;;;;23.50;99.00;;;;;;4842552;29;19932;-60
2022/06/03 12:07:03;;;;;;;;;;;23.50;99.00;;;;;;4876473;29;20448;-58
2022/06/03 12:09:46;;;;;;;;;;;23.50;98.90;;;;;;4860770;29;19939;-62
2022/06/03 12:15:21;;;;;;;;;;;23.50;98.80;;;;;;4889202;29;19950;-59
2022/06/03 12:17:48;;;;;;;;;;;23.50;98.60;;;;;;4863959;29;19940;-60
2022/06/03 12:20:33;;;;;;;;;;;23.50;98.60;;;;;;4866980;29;19997;-59
2022/06/03 12:23:12;;;;;;;;;;;23.50;98.60;;;;;;4847221;29;19932;-60
2022/06/03 12:25:40;;;;;;;;;;;23.50;98.40;;;;;;4866432;29;19932;-59
2022/06/03 12:28:13;;;;;;;;;;;23.50;98.40;;;;;;4857683;29;20373;-60
2022/06/03 12:30:54;;;;;;;;;;;23.50;98.30;;;;;;4863792;29;19939;-56
2022/06/03 12:33:27;;;;;;;;;;;23.60;98.30;;;;;;4866967;29;19932;-55
2022/06/03 12:36:02;;;;;;;;;;;23.50;98.20;;;;;;4867499;29;19928;-60
2022/06/03 12:38:45;;;;;;;;;;;23.50;98.20;;;;;;4863796;29;19928;-59
2022/06/03 12:41:32;;;;;;;;;;;23.60;98.10;;;;;;4869467;29;20031;-60
2022/06/03 12:44:00;;;;;;;;;;;23.60;98.10;;;;;;4845043;29;19928;-63
2022/06/03 12:46:36;;;;;;;;;;;23.60;98.00;;;;;;4860086;29;19928;-61
2022/06/03 12:49:15;;;;;;;;;;;23.60;97.90;;;;;;4866229;29;19932;-60
2022/06/03 12:52:00;;;;;;;;;;;23.60;97.90;;;;;;4876924;29;20400;-62
2022/06/03 12:54:28;;;;;;;;;;;23.60;97.80;;;;;;4856927;29;19935;-56
2022/06/03 12:57:00;;;;;;;;;;;23.60;97.80;;;;;;4863748;29;19940;-60
2022/06/03 12:59:39;;;;;;;;;;;23.60;97.80;;;;;;4874872;29;19928;-59
2022/06/03 13:02:14;;;;;;;;;;;23.60;97.80;;;;;;4881432;29;19935;-58
2022/06/03 13:04:42;;;;;;;;;;;23.60;97.70;;;;;;4876281;29;20464;-59
2022/06/03 13:07:10;;;;;;;;;;;23.60;97.70;;;;;;4855983;29;19928;-62
2022/06/03 13:09:47;;;;;;;;;;;23.60;97.70;;;;;;4857866;29;19931;-57
2022/06/03 13:12:27;;;;;;;;;;;23.60;97.70;;;;;;4870306;29;20333;-60
2022/06/03 13:14:55;;;;;;;;;;;23.50;97.70;;;;;;4868127;29;19935;-58
2022/06/03 13:17:40;;;;;;;;;;;23.60;97.70;;;;;;4859030;29;19932;-61
2022/06/03 13:20:09;;;;;;;;;;;23.60;97.70;;;;;;4871377;29;19932;-60
2022/06/03 13:22:47;;;;;;;;;;;23.60;97.70;;;;;;4871236;29;19935;-61
2022/06/03 13:25:14;;;;;;;;;;;23.60;97.70;;;;;;4870911;29;19928;-63
2022/06/03 13:28:01;;;;;;;;;;;23.50;97.60;;;;;;4872954;29;19934;-61
2022/06/03 13:30:35;;;;;;;;;;;23.60;97.60;;;;;;4867075;29;19955;-63
2022/06/03 13:33:19;;;;;;;;;;;23.50;97.60;;;;;;4865886;29;19928;-65
2022/06/03 13:36:01;;;;;;;;;;;23.50;97.60;;;;;;4860899;29;19932;-64
2022/06/03 13:38:43;;;;;;;;;;;23.50;97.60;;;;;;4875363;29;19938;-60
2022/06/03 13:44:08;;;;;;;;;;;23.50;97.50;;;;;;4859409;29;19940;-60
2022/06/03 13:46:36;;;;;;;;;;;23.50;97.50;;;;;;4845574;29;19958;-63
2022/06/03 13:49:29;;;;;;;;;;;23.60;97.50;;;;;;4894052;29;19927;-60
2022/06/03 13:52:03;;;;;;;;;;;23.50;97.40;;;;;;4861744;29;20300;-60
2022/06/03 13:54:36;;;;;;;;;;;23.50;97.40;;;;;;4858668;29;20490;-59
2022/06/03 13:57:22;;;;;;;;;;;23.50;97.50;;;;;;4864770;29;19931;-64
2022/06/03 13:59:49;;;;;;;;;;;23.50;97.50;;;;;;4852355;29;19951;-61
2022/06/03 14:02:19;;;;;;;;;;;23.50;97.50;;;;;;4873854;29;19943;-60
2022/06/03 14:05:01;;;;;;;;;;;23.50;97.50;;;;;;4878368;29;19943;-60
2022/06/03 14:07:34;;;;;;;;;;;23.50;97.50;;;;;;4867300;29;19939;-63
2022/06/03 14:10:21;;;;;;;;;;;23.50;97.40;;;;;;4864699;29;19943;-61
2022/06/03 14:12:53;;;;;;;;;;;23.50;97.50;;;;;;4857297;29;19928;-59
2022/06/03 14:15:25;;;;;;;;;;;23.50;97.50;;;;;;4869702;29;19932;-62
2022/06/03 14:17:56;;;;;;;;;;;23.50;97.50;;;;;;4855466;29;19932;-59
2022/06/03 14:20:29;;;;;;;;;;;23.50;97.50;;;;;;4884940;29;20023;-61
2022/06/03 14:23:07;;;;;;;;;;;23.50;97.50;;;;;;4857148;29;19928;-62
2022/06/03 14:25:45;;;;;;;;;;;23.50;97.50;;;;;;4864845;29;19931;-66
2022/06/03 14:28:12;;;;;;;;;;;23.50;97.50;;;;;;4857977;29;20569;-61
2022/06/03 14:30:58;;;;;;;;;;;23.50;97.40;;;;;;4868317;29;19939;-63
2022/06/03 14:33:29;;;;;;;;;;;23.50;97.70;;;;;;4858721;29;19935;-62
2022/06/03 14:35:58;;;;;;;;;;;23.50;97.50;;;;;;4855166;29;20328;-62
2022/06/03 14:38:31;;;;;;;;;;;23.50;97.40;;;;;;4857995;29;19936;-63
2022/06/03 14:40:58;;;;;;;;;;;23.50;97.40;;;;;;4872996;29;19938;-57
2022/06/03 14:43:28;;;;;;;;;;;23.50;97.40;;;;;;4876364;29;19935;-61
2022/06/03 14:45:59;;;;;;;;;;;23.50;97.40;;;;;;4860282;29;19936;-61
2022/06/03 14:48:30;;;;;;;;;;;23.50;97.40;;;;;;4869408;29;19928;-62
2022/06/03 14:51:02;;;;;;;;;;;23.50;97.40;;;;;;4857689;29;19928;-64
2022/06/03 14:53:38;;;;;;;;;;;23.50;97.40;;;;;;4856406;29;19932;-64
2022/06/03 14:56:24;;;;;;;;;;;23.50;97.40;;;;;;4863946;29;20400;-59
2022/06/03 14:58:54;;;;;;;;;;;23.50;97.30;;;;;;4858723;29;19928;-64
2022/06/03 15:01:27;;;;;;;;;;;23.50;97.30;;;;;;4868878;29;19928;-61
2022/06/03 15:03:54;;;;;;;;;;;23.50;97.30;;;;;;4863412;29;20161;-61
2022/06/03 15:06:28;;;;;;;;;;;23.50;97.30;;;;;;4861465;29;19932;-60
2022/06/03 15:09:01;;;;;;;;;;;23.50;97.30;;;;;;4859318;29;19932;-60
2022/06/03 15:11:28;;;;;;;;;;;23.50;97.30;;;;;;4865856;29;19939;-61
2022/06/03 15:13:55;;;;;;;;;;;23.50;97.30;;;;;;4851276;29;20007;-61
2022/06/03 15:16:23;;;;;;;;;;;23.50;97.30;;;;;;4874393;29;19931;-64
2022/06/03 15:18:50;;;;;;;;;;;23.50;97.30;;;;;;4857842;29;19932;-64
2022/06/03 15:21:32;;;;;;;;;;;23.50;97.30;;;;;;4866222;29;19935;-60
2022/06/03 15:24:01;;;;;;;;;;;23.50;97.30;;;;;;4857863;29;19929;-64
2022/06/03 15:26:36;;;;;;;;;;;23.50;97.30;;;;;;4860175;29;19932;-61
2022/06/03 15:29:05;;;;;;;;;;;23.50;97.30;;;;;;4858468;29;20034;-59
2022/06/03 15:31:34;;;;;;;;;;;23.50;97.30;;;;;;4887838;29;19928;-63
2022/06/03 15:34:04;;;;;;;;;;;23.50;97.30;;;;;;4851127;29;19931;-62
2022/06/03 15:36:50;;;;;;;;;;;23.50;97.30;;;;;;4862053;29;19936;-60